Time,TemperatureF,DewpointF,PressureIn,WindDirection,WindDirectionDegrees,WindSpeedMPH,WindSpeedGustMPH,Humidity,HourlyPrecipIn,Conditions,Clouds,dailyrainin,SoftwareType,DateUTC
2013-01-22 00:03:00,18.5,7.6,30.29,South,180,0.0,0.0,62,0.00,,,0.00,WUHU21623XXSP,2013-01-22 08:03:00,
2013-01-22 00:10:00,18.3,7.4,30.29,SSW,202,0.0,0.0,62,0.00,,,0.00,WUHU21623XXSP,2013-01-22 08:10:00,
2013-01-22 00:31:00,18.0,7.1,30.29,SE,135,0.0,0.0,62,0.00,,,0.00,WUHU21623XXSP,2013-01-22 08:31:00,
2013-01-22 00:36:00,18.0,7.1,30.29,SE,135,0.0,0.0,62,0.00,,,0.00,WUHU21623XXSP,2013-01-22 08:36:00,
2013-01-22 00:58:00,17.4,6.9,30.29,West,270,0.0,0.0,63,0.00,,,0.00,WUHU21623XXSP,2013-01-22 08:58:00,
2013-01-22 01:03:00,17.4,6.9,30.29,West,270,0.0,0.0,63,0.00,,,0.00,WUHU21623XXSP,2013-01-22 09:03:00,
2013-01-22 01:12:00,17.2,6.7,30.29,NNW,337,0.0,0.0,63,0.00,,,0.00,WUHU21623XXSP,2013-01-22 09:12:00,
2013-01-22 01:23:00,17.1,6.6,30.28,WNW,292,0.0,0.0,63,0.00,,,0.00,WUHU21623XXSP,2013-01-22 09:23:00,
2013-01-22 01:33:00,16.9,6.7,30.28,NNE,22,0.0,0.0,64,0.00,,,0.00,WUHU21623XXSP,2013-01-22 09:33:00,
2013-01-22 01:38:00,16.7,6.5,30.28,NNE,22,0.0,0.0,64,0.00,,,0.00,WUHU21623XXSP,2013-01-22 09:38:00,
2013-01-22 01:53:00,16.3,6.2,30.28,NNE,22,0.0,0.0,64,0.00,,,0.00,WUHU21623XXSP,2013-01-22 09:53:00,
2013-01-22 01:58:00,16.3,6.2,30.28,NNE,22,0.0,0.0,64,0.00,,,0.00,WUHU21623XXSP,2013-01-22 09:58:00,
2013-01-22 02:03:00,16.3,6.2,30.28,NNE,22,0.0,0.0,64,0.00,,,0.00,WUHU21623XXSP,2013-01-22 10:03:00,
2013-01-22 02:10:00,16.2,6.3,30.28,NNE,22,0.0,0.0,65,0.00,,,0.00,WUHU21623XXSP,2013-01-22 10:10:00,
2013-01-22 02:22:00,16.0,6.2,30.28,NNE,22,0.0,0.0,65,0.00,,,0.00,WUHU21623XXSP,2013-01-22 10:22:00,
2013-01-22 02:36:00,15.6,5.8,30.27,NNE,22,0.0,0.0,65,0.00,,,0.00,WUHU21623XXSP,2013-01-22 10:36:00,
2013-01-22 02:42:00,15.6,5.8,30.27,NNE,22,0.0,0.0,65,0.00,,,0.00,WUHU21623XXSP,2013-01-22 10:42:00,
2013-01-22 02:50:00,15.4,5.7,30.26,NNE,22,0.0,0.0,65,0.00,,,0.00,WUHU21623XXSP,2013-01-22 10:50:00,
2013-01-22 02:55:00,15.4,6.0,30.26,NW,315,0.0,0.0,66,0.00,,,0.00,WUHU21623XXSP,2013-01-22 10:55:00,
2013-01-22 03:00:00,15.4,6.0,30.26,NW,315,0.0,0.0,66,0.00,,,0.00,WUHU21623XXSP,2013-01-22 11:00:00,
2013-01-22 03:05:00,15.4,6.0,30.26,NW,315,0.0,0.0,66,0.00,,,0.00,WUHU21623XXSP,2013-01-22 11:05:00,
2013-01-22 03:10:00,15.3,5.8,30.26,NNE,22,0.0,0.0,66,0.00,,,0.00,WUHU21623XXSP,2013-01-22 11:10:00,
2013-01-22 03:58:00,14.7,5.4,30.25,NE,45,0.0,0.0,66,0.00,,,0.00,WUHU21623XXSP,2013-01-22 11:58:00,
2013-01-22 04:03:00,14.7,5.4,30.25,NE,45,0.0,0.0,67,0.00,,,0.00,WUHU21623XXSP,2013-01-22 12:03:00,
2013-01-22 04:08:00,14.7,5.7,30.25,NE,45,0.0,0.0,67,0.00,,,0.00,WUHU21623XXSP,2013-01-22 12:08:00,
2013-01-22 04:14:00,14.5,5.5,30.25,NE,45,0.0,0.0,67,0.00,,,0.00,WUHU21623XXSP,2013-01-22 12:14:00,
2013-01-22 04:19:00,14.5,5.5,30.25,NE,45,0.0,0.0,67,0.00,,,0.00,WUHU21623XXSP,2013-01-22 12:19:00,
2013-01-22 04:31:00,14.4,5.4,30.25,NE,45,0.0,0.0,67,0.00,,,0.00,WUHU21623XXSP,2013-01-22 12:31:00,
2013-01-22 04:46:00,14.2,5.2,30.25,NE,45,0.0,0.0,67,0.00,,,0.00,WUHU21623XXSP,2013-01-22 12:46:00,
2013-01-22 04:58:00,14.2,5.6,30.25,ESE,112,0.0,0.0,68,0.00,,,0.00,WUHU21623XXSP,2013-01-22 12:58:00,
2013-01-22 05:03:00,14.2,5.6,30.25,ESE,112,0.0,0.0,68,0.00,,,0.00,WUHU21623XXSP,2013-01-22 13:03:00,
2013-01-22 05:08:00,14.2,5.6,30.25,SE,135,0.0,0.0,68,0.00,,,0.00,WUHU21623XXSP,2013-01-22 13:08:00,
2013-01-22 05:20:00,13.8,5.2,30.25,East,90,0.0,0.0,68,0.00,,,0.00,WUHU21623XXSP,2013-01-22 13:20:00,
2013-01-22 05:33:00,13.8,5.2,30.25,SE,135,0.0,0.0,68,0.00,,,0.00,WUHU21623XXSP,2013-01-22 13:33:00,
2013-01-22 05:39:00,13.6,5.0,30.25,West,270,0.0,0.0,68,0.00,,,0.00,WUHU21623XXSP,2013-01-22 13:39:00,
2013-01-22 05:48:00,13.6,5.4,30.25,WNW,292,0.0,0.0,69,0.00,,,0.00,WUHU21623XXSP,2013-01-22 13:48:00,
2013-01-22 05:54:00,13.3,5.0,30.25,WNW,292,0.0,0.0,69,0.00,,,0.00,WUHU21623XXSP,2013-01-22 13:54:00,
2013-01-22 05:59:00,13.3,5.0,30.25,WNW,292,0.0,0.0,69,0.00,,,0.00,WUHU21623XXSP,2013-01-22 13:59:00,
2013-01-22 06:05:00,13.3,5.0,30.25,WNW,292,0.0,0.0,69,0.00,,,0.00,WUHU21623XXSP,2013-01-22 14:05:00,
2013-01-22 06:12:00,12.9,4.8,30.25,WNW,292,0.0,0.0,69,0.00,,,0.00,WUHU21623XXSP,2013-01-22 14:12:00,
2013-01-22 06:17:00,12.9,4.7,30.25,NE,45,0.0,0.0,69,0.00,,,0.00,WUHU21623XXSP,2013-01-22 14:17:00,
2013-01-22 06:22:00,12.9,4.7,30.25,NNE,22,0.0,0.0,69,0.00,,,0.00,WUHU21623XXSP,2013-01-22 14:22:00,
2013-01-22 06:33:00,12.7,4.5,30.25,ENE,67,0.0,0.0,69,0.00,,,0.00,WUHU21623XXSP,2013-01-22 14:33:00,
2013-01-22 06:40:00,12.7,4.5,30.25,ENE,67,0.0,0.0,69,0.00,,,0.00,WUHU21623XXSP,2013-01-22 14:40:00,
2013-01-22 06:46:00,12.6,4.3,30.25,ESE,112,0.0,0.0,69,0.00,,,0.00,WUHU21623XXSP,2013-01-22 14:46:00,
2013-01-22 07:03:00,12.4,4.1,30.24,East,90,0.0,0.0,69,0.00,,,0.00,WUHU21623XXSP,2013-01-22 15:03:00,
2013-01-22 07:20:00,12.4,4.3,30.24,North,0,0.0,0.0,70,0.00,,,0.00,WUHU21623XXSP,2013-01-22 15:20:00,
2013-01-22 07:36:00,12.2,4.3,30.25,WNW,292,0.0,0.0,70,0.00,,,0.00,WUHU21623XXSP,2013-01-22 15:36:00,
2013-01-22 07:44:00,12.2,4.3,30.24,WNW,292,0.0,0.0,70,0.00,,,0.00,WUHU21623XXSP,2013-01-22 15:44:00,
2013-01-22 07:54:00,12.4,4.7,30.24,WNW,292,0.0,0.0,71,0.00,,,0.00,WUHU21623XXSP,2013-01-22 15:54:00,
2013-01-22 08:00:00,12.4,4.7,30.24,NW,315,0.0,0.0,71,0.00,,,0.00,WUHU21623XXSP,2013-01-22 16:00:00,
2013-01-22 08:05:00,12.7,4.9,30.24,NNW,337,0.0,0.0,71,0.00,,,0.00,WUHU21623XXSP,2013-01-22 16:05:00,
2013-01-22 08:10:00,12.9,5.6,30.24,NW,315,0.0,0.0,72,0.00,,,0.00,WUHU21623XXSP,2013-01-22 16:10:00,
2013-01-22 08:27:00,15.3,8.4,30.24,NW,315,0.0,0.0,74,0.00,,,0.00,WUHU21623XXSP,2013-01-22 16:27:00,
2013-01-22 08:40:00,17.8,11.1,30.24,WNW,292,0.0,0.0,75,0.00,,,0.00,WUHU21623XXSP,2013-01-22 16:40:00,
2013-01-22 08:46:00,19.2,12.1,30.25,WNW,292,0.0,0.0,75,0.00,,,0.00,WUHU21623XXSP,2013-01-22 16:46:00,
2013-01-22 08:56:00,20.3,13.2,30.25,WSW,247,0.0,0.0,74,0.00,,,0.00,WUHU21623XXSP,2013-01-22 16:56:00,
2013-01-22 09:03:00,21.4,14.6,30.24,West,270,0.0,0.0,75,0.00,,,0.00,WUHU21623XXSP,2013-01-22 17:03:00,
2013-01-22 09:12:00,23.0,16.3,30.24,SSW,202,0.0,0.0,75,0.00,,,0.00,WUHU21623XXSP,2013-01-22 17:12:00,
2013-01-22 09:18:00,24.1,17.3,30.25,NNW,337,0.0,0.0,75,0.00,,,0.00,WUHU21623XXSP,2013-01-22 17:18:00,
2013-01-22 09:24:00,25.0,18.1,30.24,NNW,337,0.0,0.0,75,0.00,,,0.00,WUHU21623XXSP,2013-01-22 17:24:00,
2013-01-22 09:52:00,27.7,20.1,30.25,SSW,202,0.0,0.0,73,0.00,,,0.00,WUHU21623XXSP,2013-01-22 17:52:00,
2013-01-22 10:01:00,28.6,20.7,30.25,NW,315,0.0,0.0,72,0.00,,,0.00,WUHU21623XXSP,2013-01-22 18:01:00,
2013-01-22 10:18:00,29.8,21.5,30.25,SE,135,0.0,0.0,71,0.00,,,0.00,WUHU21623XXSP,2013-01-22 18:18:00,
2013-01-22 10:23:00,30.0,21.7,30.25,NE,45,0.0,0.0,71,0.00,,,0.00,WUHU21623XXSP,2013-01-22 18:23:00,
2013-01-22 10:33:00,30.9,22.3,30.25,South,180,2.2,2.2,70,0.00,,,0.00,WUHU21623XXSP,2013-01-22 18:33:00,
2013-01-22 10:39:00,31.6,23.0,30.24,ESE,112,0.0,2.2,70,0.00,,,0.00,WUHU21623XXSP,2013-01-22 18:39:00,
2013-01-22 10:57:00,33.4,24.0,30.24,South,180,2.7,2.7,69,0.00,,,0.00,WUHU21623XXSP,2013-01-22 18:57:00,
2013-01-22 11:14:00,35.8,26.2,30.23,SSE,157,0.0,0.0,67,0.00,,,0.00,WUHU21623XXSP,2013-01-22 19:14:00,
2013-01-22 11:19:00,36.5,26.4,30.23,NNW,337,0.0,0.0,67,0.00,,,0.00,WUHU21623XXSP,2013-01-22 19:19:00,
2013-01-22 11:24:00,37.0,26.4,30.23,North,0,0.0,0.0,66,0.00,,,0.00,WUHU21623XXSP,2013-01-22 19:24:00,
2013-01-22 11:33:00,37.9,27.2,30.22,West,270,0.0,0.0,65,0.00,,,0.00,WUHU21623XXSP,2013-01-22 19:33:00,
2013-01-22 11:52:00,40.6,28.6,30.22,SSW,202,0.0,0.0,62,0.00,,,0.00,WUHU21623XXSP,2013-01-22 19:52:00,
2013-01-22 11:59:00,41.4,29.1,30.21,South,180,0.0,0.0,62,0.00,,,0.00,WUHU21623XXSP,2013-01-22 19:59:00,
2013-01-22 12:39:00,43.5,29.2,30.19,South,180,0.0,0.0,57,0.00,,,0.00,WUHU21623XXSP,2013-01-22 20:39:00,
2013-01-22 12:44:00,43.9,29.1,30.19,SW,225,0.0,0.0,56,0.00,,,0.00,WUHU21623XXSP,2013-01-22 20:44:00,
2013-01-22 12:49:00,44.2,29.5,30.18,ESE,112,0.0,0.0,56,0.00,,,0.00,WUHU21623XXSP,2013-01-22 20:49:00,
2013-01-22 12:58:00,45.0,29.7,30.18,SSW,202,0.0,0.0,55,0.00,,,0.00,WUHU21623XXSP,2013-01-22 20:58:00,
2013-01-22 13:03:00,45.3,30.0,30.18,WNW,292,1.6,1.6,55,0.00,,,0.00,WUHU21623XXSP,2013-01-22 21:03:00,
2013-01-22 13:09:00,46.0,30.1,30.18,North,0,0.0,1.6,54,0.00,,,0.00,WUHU21623XXSP,2013-01-22 21:09:00,
2013-01-22 13:16:00,46.8,30.6,30.17,WNW,292,0.0,0.0,54,0.00,,,0.00,WUHU21623XXSP,2013-01-22 21:16:00,
2013-01-22 13:26:00,47.5,31.1,30.17,NW,315,0.0,0.0,53,0.00,,,0.00,WUHU21623XXSP,2013-01-22 21:26:00,
2013-01-22 13:33:00,48.6,31.7,30.17,NW,315,0.0,0.0,52,0.00,,,0.00,WUHU21623XXSP,2013-01-22 21:33:00,
2013-01-22 13:34:00,48.6,31.7,30.17,NW,315,0.0,0.0,52,0.00,,,0.00,WUHU21623XXSP,2013-01-22 21:34:00,
2013-01-22 13:39:00,49.3,31.9,30.16,WSW,247,0.0,0.0,51,0.00,,,0.00,WUHU21623XXSP,2013-01-22 21:39:00,
2013-01-22 13:48:00,50.0,32.6,30.16,WSW,247,0.0,0.0,51,0.00,,,0.00,WUHU21623XXSP,2013-01-22 21:48:00,
2013-01-22 13:54:00,50.0,32.2,30.16,West,270,0.0,0.0,50,0.00,,,0.00,WUHU21623XXSP,2013-01-22 21:54:00,
2013-01-22 14:03:00,50.7,31.7,30.16,WNW,292,1.6,1.6,48,0.00,,,0.00,WUHU21623XXSP,2013-01-22 22:03:00,
2013-01-22 14:08:00,50.4,30.8,30.16,West,270,0.0,1.6,47,0.00,,,0.00,WUHU21623XXSP,2013-01-22 22:08:00,
2013-01-22 14:24:00,49.1,29.1,30.16,NNW,337,2.9,2.9,46,0.00,,,0.00,WUHU21623XXSP,2013-01-22 22:24:00,
2013-01-22 14:37:00,47.1,26.7,30.15,WNW,292,2.9,2.9,45,0.00,,,0.00,WUHU21623XXSP,2013-01-22 22:37:00,
2013-01-22 14:42:00,46.6,26.4,30.15,NNW,337,0.0,2.9,45,0.00,,,0.00,WUHU21623XXSP,2013-01-22 22:42:00,
2013-01-22 14:47:00,46.2,25.9,30.16,WNW,292,3.4,3.4,45,0.00,,,0.00,WUHU21623XXSP,2013-01-22 22:47:00,
2013-01-22 14:52:00,46.2,25.9,30.16,NNW,337,5.8,5.8,45,0.00,,,0.00,WUHU21623XXSP,2013-01-22 22:52:00,
2013-01-22 14:58:00,45.3,25.1,30.16,WNW,292,3.8,5.8,45,0.00,,,0.00,WUHU21623XXSP,2013-01-22 22:58:00,
2013-01-22 15:03:00,45.1,24.9,30.16,WNW,292,2.5,3.8,45,0.00,,,0.00,WUHU21623XXSP,2013-01-22 23:03:00,
2013-01-22 15:35:00,44.2,25.2,30.16,West,270,0.0,0.0,47,0.00,,,0.00,WUHU21623XXSP,2013-01-22 23:35:00,
2013-01-22 15:52:00,44.2,25.7,30.16,SW,225,0.0,0.0,48,0.00,,,0.00,WUHU21623XXSP,2013-01-22 23:52:00,
2013-01-22 16:07:00,43.3,25.1,30.16,SSE,157,0.0,0.0,48,0.00,,,0.00,WUHU21623XXSP,2013-01-23 00:07:00,
2013-01-22 16:18:00,42.6,24.3,30.17,SSE,157,0.0,0.0,48,0.00,,,0.00,WUHU21623XXSP,2013-01-23 00:18:00,
2013-01-22 16:33:00,41.7,23.9,30.17,South,180,0.0,0.0,49,0.00,,,0.00,WUHU21623XXSP,2013-01-23 00:33:00,
2013-01-22 16:38:00,41.4,23.7,30.17,SSE,157,0.0,0.0,49,0.00,,,0.00,WUHU21623XXSP,2013-01-23 00:38:00,
2013-01-22 16:48:00,41.0,23.2,30.17,West,270,0.0,0.0,49,0.00,,,0.00,WUHU21623XXSP,2013-01-23 00:48:00,
2013-01-22 17:05:00,39.7,22.6,30.18,WNW,292,0.0,0.0,50,0.00,,,0.00,WUHU21623XXSP,2013-01-23 01:05:00,
2013-01-22 17:13:00,38.8,21.9,30.17,North,0,0.0,0.0,50,0.00,,,0.00,WUHU21623XXSP,2013-01-23 01:13:00,
2013-01-22 17:22:00,38.1,21.3,30.17,NNE,22,0.0,0.0,50,0.00,,,0.00,WUHU21623XXSP,2013-01-23 01:22:00,
2013-01-22 17:37:00,37.0,20.6,30.17,NNE,22,0.0,0.0,51,0.00,,,0.00,WUHU21623XXSP,2013-01-23 01:37:00,
2013-01-22 18:05:00,34.5,18.8,30.17,South,180,0.0,0.0,52,0.00,,,0.00,WUHU21623XXSP,2013-01-23 02:05:00,
2013-01-22 18:11:00,34.3,18.5,30.17,SSE,157,0.0,0.0,52,0.00,,,0.00,WUHU21623XXSP,2013-01-23 02:11:00,
2013-01-22 18:17:00,33.6,17.8,30.17,ESE,112,0.0,0.0,52,0.00,,,0.00,WUHU21623XXSP,2013-01-23 02:17:00,
2013-01-22 18:32:00,32.7,17.4,30.17,SSW,202,0.0,0.0,53,0.00,,,0.00,WUHU21623XXSP,2013-01-23 02:32:00,
2013-01-22 18:45:00,31.8,16.6,30.17,ENE,67,0.0,0.0,53,0.00,,,0.00,WUHU21623XXSP,2013-01-23 02:45:00,
2013-01-22 19:00:00,31.1,16.7,30.17,SSE,157,0.0,0.0,55,0.00,,,0.00,WUHU21623XXSP,2013-01-23 03:00:00,
2013-01-22 19:20:00,30.4,16.1,30.17,South,180,0.0,0.0,55,0.00,,,0.00,WUHU21623XXSP,2013-01-23 03:20:00,
2013-01-22 19:26:00,30.0,16.1,30.17,WNW,292,0.0,0.0,56,0.00,,,0.00,WUHU21623XXSP,2013-01-23 03:26:00,
2013-01-22 19:37:00,29.5,15.7,30.17,NW,315,0.0,0.0,56,0.00,,,0.00,WUHU21623XXSP,2013-01-23 03:37:00,
2013-01-22 19:43:00,29.1,15.3,30.17,SSE,157,0.0,0.0,56,0.00,,,0.00,WUHU21623XXSP,2013-01-23 03:43:00,
2013-01-22 19:48:00,28.9,15.2,30.16,SSE,157,0.0,0.0,56,0.00,,,0.00,WUHU21623XXSP,2013-01-23 03:48:00,
2013-01-22 19:53:00,28.6,14.8,30.16,NNE,22,0.0,0.0,56,0.00,,,0.00,WUHU21623XXSP,2013-01-23 03:53:00,
2013-01-22 19:58:00,28.2,15.1,30.17,SSW,202,0.0,0.0,57,0.00,,,0.00,WUHU21623XXSP,2013-01-23 03:58:00,
2013-01-22 20:05:00,28.2,14.9,30.16,NE,45,0.0,0.0,57,0.00,,,0.00,WUHU21623XXSP,2013-01-23 04:05:00,
2013-01-22 20:26:00,27.3,14.4,30.18,South,180,0.0,0.0,58,0.00,,,0.00,WUHU21623XXSP,2013-01-23 04:26:00,
2013-01-22 20:31:00,27.1,14.3,30.18,South,180,0.0,0.0,58,0.00,,,0.00,WUHU21623XXSP,2013-01-23 04:31:00,
2013-01-22 20:36:00,27.1,14.3,30.18,South,180,0.0,0.0,58,0.00,,,0.00,WUHU21623XXSP,2013-01-23 04:36:00,
2013-01-22 20:43:00,26.8,13.9,30.19,SSW,202,0.0,0.0,58,0.00,,,0.00,WUHU21623XXSP,2013-01-23 04:43:00,
2013-01-22 20:48:00,26.8,13.9,30.18,NNE,22,0.0,0.0,58,0.00,,,0.00,WUHU21623XXSP,2013-01-23 04:48:00,
2013-01-22 20:54:00,26.4,14.0,30.18,SE,135,0.0,0.0,59,0.00,,,0.00,WUHU21623XXSP,2013-01-23 04:54:00,
2013-01-22 21:04:00,26.4,14.0,30.19,SSE,157,0.0,0.0,59,0.00,,,0.00,WUHU21623XXSP,2013-01-23 05:04:00,
2013-01-22 21:05:00,26.4,14.0,30.19,SSE,157,0.0,0.0,59,0.00,,,0.00,WUHU21623XXSP,2013-01-23 05:05:00,
2013-01-22 21:17:00,26.2,14.2,30.18,NE,45,0.0,0.0,60,0.00,,,0.00,WUHU21623XXSP,2013-01-23 05:17:00,
2013-01-22 21:22:00,26.2,14.2,30.18,NNW,337,0.0,0.0,60,0.00,,,0.00,WUHU21623XXSP,2013-01-23 05:22:00,
2013-01-22 21:28:00,25.9,13.9,30.18,NNW,337,0.0,0.0,60,0.00,,,0.00,WUHU21623XXSP,2013-01-23 05:28:00,
2013-01-22 21:39:00,25.7,13.7,30.17,SE,135,0.0,0.0,60,0.00,,,0.00,WUHU21623XXSP,2013-01-23 05:39:00,
2013-01-22 22:07:00,25.5,13.9,30.17,West,270,0.0,0.0,61,0.00,,,0.00,WUHU21623XXSP,2013-01-23 06:07:00,
2013-01-22 22:13:00,25.5,14.3,30.17,SSW,202,0.0,0.0,62,0.00,,,0.00,WUHU21623XXSP,2013-01-23 06:13:00,
2013-01-22 22:22:00,25.5,14.3,30.17,SSE,157,0.0,0.0,62,0.00,,,0.00,WUHU21623XXSP,2013-01-23 06:22:00,
2013-01-22 22:43:00,25.3,14.4,30.17,ENE,67,0.0,0.0,63,0.00,,,0.00,WUHU21623XXSP,2013-01-23 06:43:00,
2013-01-22 22:56:00,25.5,14.6,30.17,West,270,0.0,0.0,63,0.00,,,0.00,WUHU21623XXSP,2013-01-23 06:56:00,
2013-01-22 23:01:00,25.5,14.6,30.17,West,270,0.0,0.0,63,0.00,,,0.00,WUHU21623XXSP,2013-01-23 07:01:00,
2013-01-22 23:06:00,25.5,15.0,30.17,ENE,67,0.0,0.0,64,0.00,,,0.00,WUHU21623XXSP,2013-01-23 07:06:00,
2013-01-22 23:15:00,25.5,15.0,30.17,West,270,0.0,0.0,64,0.00,,,0.00,WUHU21623XXSP,2013-01-23 07:15:00,
2013-01-22 23:21:00,25.7,15.1,30.18,SE,135,0.0,0.0,64,0.00,,,0.00,WUHU21623XXSP,2013-01-23 07:21:00,
2013-01-22 23:27:00,25.7,15.1,30.18,SSE,157,0.0,0.0,64,0.00,,,0.00,WUHU21623XXSP,2013-01-23 07:27:00,
2013-01-22 23:37:00,25.7,15.5,30.18,NNW,337,0.0,0.0,65,0.00,,,0.00,WUHU21623XXSP,2013-01-23 07:37:00,
2013-01-22 23:52:00,25.5,15.3,30.17,WNW,292,0.0,0.0,65,0.00,,,0.00,WUHU21623XXSP,2013-01-23 07:52:00,
2013-01-22 23:57:00,25.5,15.3,30.17,WNW,292,0.0,0.0,65,0.00,,,0.00,WUHU21623XXSP,2013-01-23 07:57:00,